sensor_id;sensor_type;location;lat;lon;timestamp;pressure;altitude;pressure_sealevel;temperature;humidity
72428;BME280;60419;48.880;18.036;2023-11-21T00:01:12;98462.00;;;9.37;72.37
72428;BME280;60419;48.880;18.036;2023-11-21T00:03:57;98464.44;;;9.47;70.75
72428;BME280;60419;48.880;18.036;2023-11-21T00:06:42;98466.97;;;9.12;72.43
72428;BME280;60419;48.880;18.036;2023-11-21T00:09:32;98472.97;;;9.09;72.48
72428;BME280;60419;48.880;18.036;2023-11-21T00:12:17;98466.50;;;9.19;72.17
72428;BME280;60419;48.880;18.036;2023-11-21T00:15:04;98475.88;;;9.21;71.73
72428;BME280;60419;48.880;18.036;2023-11-21T00:17:59;98450.47;;;9.14;72.03
72428;BME280;60419;48.880;18.036;2023-11-21T00:20:45;98463.44;;;9.34;71.75
72428;BME280;60419;48.880;18.036;2023-11-21T00:23:30;98468.06;;;9.42;70.67
72428;BME280;60419;48.880;18.036;2023-11-21T00:26:16;98452.31;;;9.76;70.25
72428;BME280;60419;48.880;18.036;2023-11-21T00:29:01;98426.91;;;9.19;71.36
72428;BME280;60419;48.880;18.036;2023-11-21T00:31:47;98459.53;;;9.49;71.35
72428;BME280;60419;48.880;18.036;2023-11-21T00:34:32;98457.47;;;9.55;71.20
72428;BME280;60419;48.880;18.036;2023-11-21T00:37:18;98463.09;;;9.84;70.20
72428;BME280;60419;48.880;18.036;2023-11-21T00:40:03;98461.53;;;9.92;69.71
72428;BME280;60419;48.880;18.036;2023-11-21T00:42:50;98456.81;;;10.15;68.37
72428;BME280;60419;48.880;18.036;2023-11-21T00:45:36;98445.22;;;10.06;68.23
72428;BME280;60419;48.880;18.036;2023-11-21T00:48:21;98442.63;;;9.75;70.09
72428;BME280;60419;48.880;18.036;2023-11-21T00:51:07;98442.22;;;10.16;68.71
72428;BME280;60419;48.880;18.036;2023-11-21T00:53:52;98434.72;;;10.04;68.58
72428;BME280;60419;48.880;18.036;2023-11-21T00:56:37;98435.84;;;10.03;68.63
72428;BME280;60419;48.880;18.036;2023-11-21T00:59:23;98426.47;;;9.83;68.49
72428;BME280;60419;48.880;18.036;2023-11-21T01:02:09;98434.56;;;10.09;67.61
72428;BME280;60419;48.880;18.036;2023-11-21T01:04:55;98441.03;;;9.65;69.50
72428;BME280;60419;48.880;18.036;2023-11-21T01:07:41;98437.13;;;10.06;67.73
72428;BME280;60419;48.880;18.036;2023-11-21T01:10:26;98437.28;;;10.27;67.06
72428;BME280;60419;48.880;18.036;2023-11-21T01:13:12;98433.94;;;10.38;66.81
72428;BME280;60419;48.880;18.036;2023-11-21T01:15:57;98430.44;;;10.21;67.13
72428;BME280;60419;48.880;18.036;2023-11-21T01:18:42;98430.44;;;10.12;66.85
72428;BME280;60419;48.880;18.036;2023-11-21T01:21:29;98431.25;;;10.21;66.39
72428;BME280;60419;48.880;18.036;2023-11-21T01:24:14;98433.63;;;10.14;67.18
72428;BME280;60419;48.880;18.036;2023-11-21T01:26:59;98436.16;;;10.02;66.70
72428;BME280;60419;48.880;18.036;2023-11-21T01:29:45;98443.56;;;9.70;68.53
72428;BME280;60419;48.880;18.036;2023-11-21T01:32:30;98438.13;;;9.52;69.30
72428;BME280;60419;48.880;18.036;2023-11-21T01:35:15;98441.56;;;8.28;74.00
72428;BME280;60419;48.880;18.036;2023-11-21T01:38:01;98449.06;;;8.40;73.85
72428;BME280;60419;48.880;18.036;2023-11-21T01:40:46;98444.13;;;8.33;74.35
72428;BME280;60419;48.880;18.036;2023-11-21T01:43:32;98453.13;;;8.74;72.50
72428;BME280;60419;48.880;18.036;2023-11-21T01:46:17;98444.69;;;8.98;70.66
72428;BME280;60419;48.880;18.036;2023-11-21T01:49:03;98448.91;;;9.21;70.06
72428;BME280;60419;48.880;18.036;2023-11-21T01:51:49;98443.94;;;9.06;70.26
72428;BME280;60419;48.880;18.036;2023-11-21T01:54:35;98452.06;;;9.46;69.38
72428;BME280;60419;48.880;18.036;2023-11-21T01:57:22;98439.72;;;9.54;67.74
72428;BME280;60419;48.880;18.036;2023-11-21T02:00:08;98444.25;;;9.36;68.69
72428;BME280;60419;48.880;18.036;2023-11-21T02:03:04;98443.50;;;8.81;69.91
72428;BME280;60419;48.880;18.036;2023-11-21T02:05:49;98445.72;;;9.11;69.80
72428;BME280;60419;48.880;18.036;2023-11-21T02:08:35;98440.03;;;9.12;69.08
72428;BME280;60419;48.880;18.036;2023-11-21T02:11:22;98441.38;;;9.32;68.57
72428;BME280;60419;48.880;18.036;2023-11-21T02:14:09;98449.91;;;8.94;69.19
72428;BME280;60419;48.880;18.036;2023-11-21T02:16:55;98450.19;;;9.24;68.67
72428;BME280;60419;48.880;18.036;2023-11-21T02:19:42;98458.03;;;9.34;68.05
72428;BME280;60419;48.880;18.036;2023-11-21T02:22:31;98448.53;;;9.37;67.95
72428;BME280;60419;48.880;18.036;2023-11-21T02:25:20;98451.28;;;9.14;68.45
72428;BME280;60419;48.880;18.036;2023-11-21T02:28:06;98445.41;;;9.12;67.96
72428;BME280;60419;48.880;18.036;2023-11-21T02:30:52;98444.47;;;8.85;69.17
72428;BME280;60419;48.880;18.036;2023-11-21T02:33:44;98444.34;;;8.91;68.99
72428;BME280;60419;48.880;18.036;2023-11-21T02:36:29;98449.03;;;9.07;69.19
72428;BME280;60419;48.880;18.036;2023-11-21T02:39:15;98429.53;;;7.75;72.43
72428;BME280;60419;48.880;18.036;2023-11-21T02:42:01;98447.75;;;8.15;73.77
72428;BME280;60419;48.880;18.036;2023-11-21T02:44:47;98450.84;;;8.67;71.20
72428;BME280;60419;48.880;18.036;2023-11-21T02:47:32;98429.66;;;8.74;70.44
72428;BME280;60419;48.880;18.036;2023-11-21T02:50:18;98442.72;;;8.58;70.92
72428;BME280;60419;48.880;18.036;2023-11-21T02:53:04;98446.31;;;8.54;70.66
72428;BME280;60419;48.880;18.036;2023-11-21T02:55:51;98455.34;;;8.49;71.15
72428;BME280;60419;48.880;18.036;2023-11-21T02:58:37;98445.84;;;8.52;71.36
72428;BME280;60419;48.880;18.036;2023-11-21T03:01:22;98445.44;;;8.22;71.39
72428;BME280;60419;48.880;18.036;2023-11-21T03:04:09;98450.94;;;7.81;74.32
72428;BME280;60419;48.880;18.036;2023-11-21T03:06:54;98438.84;;;8.06;73.81
72428;BME280;60419;48.880;18.036;2023-11-21T03:09:39;98450.00;;;7.02;76.55
72428;BME280;60419;48.880;18.036;2023-11-21T03:12:25;98437.19;;;6.99;78.36
72428;BME280;60419;48.880;18.036;2023-11-21T03:15:11;98435.13;;;7.38;76.76
72428;BME280;60419;48.880;18.036;2023-11-21T03:17:56;98442.09;;;6.64;79.85
72428;BME280;60419;48.880;18.036;2023-11-21T03:20:43;98406.34;;;6.97;78.21
72428;BME280;60419;48.880;18.036;2023-11-21T03:23:31;98436.19;;;6.62;79.70
72428;BME280;60419;48.880;18.036;2023-11-21T03:26:17;98428.34;;;6.66;80.70
72428;BME280;60419;48.880;18.036;2023-11-21T03:29:02;98422.53;;;6.92;78.21
72428;BME280;60419;48.880;18.036;2023-11-21T03:31:48;98419.00;;;5.55;85.37
72428;BME280;60419;48.880;18.036;2023-11-21T03:34:33;98418.38;;;6.01;85.25
72428;BME280;60419;48.880;18.036;2023-11-21T03:37:19;98419.31;;;6.62;82.38
72428;BME280;60419;48.880;18.036;2023-11-21T03:40:06;98415.16;;;6.37;81.65
72428;BME280;60419;48.880;18.036;2023-11-21T03:42:53;98405.94;;;6.43;82.23
72428;BME280;60419;48.880;18.036;2023-11-21T03:45:38;98411.97;;;6.67;80.54
72428;BME280;60419;48.880;18.036;2023-11-21T03:48:25;98421.66;;;6.82;79.81
72428;BME280;60419;48.880;18.036;2023-11-21T03:51:11;98417.41;;;7.09;78.93
72428;BME280;60419;48.880;18.036;2023-11-21T03:53:56;98417.97;;;6.92;79.46
72428;BME280;60419;48.880;18.036;2023-11-21T03:56:41;98423.25;;;5.99;82.88
72428;BME280;60419;48.880;18.036;2023-11-21T03:59:27;98424.41;;;6.77;80.51
72428;BME280;60419;48.880;18.036;2023-11-21T04:02:12;98415.88;;;7.03;77.45
72428;BME280;60419;48.880;18.036;2023-11-21T04:04:58;98420.38;;;7.07;75.83
72428;BME280;60419;48.880;18.036;2023-11-21T04:07:43;98426.56;;;6.61;78.91
72428;BME280;60419;48.880;18.036;2023-11-21T04:10:28;98428.53;;;7.02;78.22
72428;BME280;60419;48.880;18.036;2023-11-21T04:13:14;98422.59;;;6.59;78.64
72428;BME280;60419;48.880;18.036;2023-11-21T04:15:59;98421.25;;;6.89;77.96
72428;BME280;60419;48.880;18.036;2023-11-21T04:18:44;98410.41;;;6.94;76.78
72428;BME280;60419;48.880;18.036;2023-11-21T04:21:30;98413.41;;;7.06;75.21
72428;BME280;60419;48.880;18.036;2023-11-21T04:24:15;98422.13;;;6.19;78.16
72428;BME280;60419;48.880;18.036;2023-11-21T04:27:01;98427.97;;;5.64;82.10
72428;BME280;60419;48.880;18.036;2023-11-21T04:29:47;98424.06;;;5.56;82.65
72428;BME280;60419;48.880;18.036;2023-11-21T04:32:33;98424.94;;;5.28;82.04
72428;BME280;60419;48.880;18.036;2023-11-21T04:35:19;98427.91;;;5.26;81.51
72428;BME280;60419;48.880;18.036;2023-11-21T04:38:04;98415.22;;;5.56;80.98
72428;BME280;60419;48.880;18.036;2023-11-21T04:40:50;98424.94;;;6.09;78.27
72428;BME280;60419;48.880;18.036;2023-11-21T04:43:35;98422.91;;;6.19;77.48
72428;BME280;60419;48.880;18.036;2023-11-21T04:46:20;98418.25;;;6.44;76.03
72428;BME280;60419;48.880;18.036;2023-11-21T04:49:06;98423.03;;;6.14;76.76
72428;BME280;60419;48.880;18.036;2023-11-21T04:51:52;98420.53;;;5.80;78.09
72428;BME280;60419;48.880;18.036;2023-11-21T04:54:37;98415.38;;;6.21;76.42
72428;BME280;60419;48.880;18.036;2023-11-21T04:57:22;98429.59;;;6.41;75.82
72428;BME280;60419;48.880;18.036;2023-11-21T05:00:11;98422.13;;;6.38;75.01
72428;BME280;60419;48.880;18.036;2023-11-21T05:02:57;98445.78;;;6.50;75.17
72428;BME280;60419;48.880;18.036;2023-11-21T05:05:43;98442.00;;;6.51;74.77
72428;BME280;60419;48.880;18.036;2023-11-21T05:08:28;98438.34;;;6.47;74.63
72428;BME280;60419;48.880;18.036;2023-11-21T05:11:26;98444.53;;;6.28;75.25
72428;BME280;60419;48.880;18.036;2023-11-21T05:14:12;98451.84;;;6.04;76.74
72428;BME280;60419;48.880;18.036;2023-11-21T05:16:58;98449.44;;;6.21;75.84
72428;BME280;60419;48.880;18.036;2023-11-21T05:19:44;98455.41;;;6.18;74.59
72428;BME280;60419;48.880;18.036;2023-11-21T05:22:30;98457.44;;;6.07;75.32
72428;BME280;60419;48.880;18.036;2023-11-21T05:25:16;98466.13;;;6.18;74.72
72428;BME280;60419;48.880;18.036;2023-11-21T05:28:03;98469.41;;;6.15;75.92
72428;BME280;60419;48.880;18.036;2023-11-21T05:30:49;98472.56;;;6.36;75.27
72428;BME280;60419;48.880;18.036;2023-11-21T05:33:35;98473.84;;;6.57;74.83
72428;BME280;60419;48.880;18.036;2023-11-21T05:36:20;98476.03;;;6.55;74.77
72428;BME280;60419;48.880;18.036;2023-11-21T05:39:06;98477.25;;;6.63;73.90
72428;BME280;60419;48.880;18.036;2023-11-21T05:41:51;98479.34;;;6.66;74.07
72428;BME280;60419;48.880;18.036;2023-11-21T05:44:37;98483.44;;;6.44;74.66
72428;BME280;60419;48.880;18.036;2023-11-21T05:47:26;98492.69;;;6.71;74.25
72428;BME280;60419;48.880;18.036;2023-11-21T05:50:13;98461.97;;;5.45;77.24
72428;BME280;60419;48.880;18.036;2023-11-21T05:53:02;98495.91;;;6.16;76.08
72428;BME280;60419;48.880;18.036;2023-11-21T05:55:47;98493.94;;;5.84;77.01
72428;BME280;60419;48.880;18.036;2023-11-21T05:58:33;98491.44;;;6.12;76.23
72428;BME280;60419;48.880;18.036;2023-11-21T06:01:18;98501.44;;;6.25;77.03
72428;BME280;60419;48.880;18.036;2023-11-21T06:04:04;98481.72;;;6.16;76.84
72428;BME280;60419;48.880;18.036;2023-11-21T06:06:51;98474.94;;;6.37;76.55
72428;BME280;60419;48.880;18.036;2023-11-21T06:09:37;98484.75;;;6.28;76.67
72428;BME280;60419;48.880;18.036;2023-11-21T06:12:22;98495.03;;;5.83;77.54
72428;BME280;60419;48.880;18.036;2023-11-21T06:15:09;98494.34;;;5.48;79.01
72428;BME280;60419;48.880;18.036;2023-11-21T06:17:55;98508.34;;;5.16;80.23
72428;BME280;60419;48.880;18.036;2023-11-21T06:20:40;98501.97;;;4.78;81.56
72428;BME280;60419;48.880;18.036;2023-11-21T06:23:26;98510.13;;;4.91;81.80
72428;BME280;60419;48.880;18.036;2023-11-21T06:26:11;98527.16;;;4.72;83.21
72428;BME280;60419;48.880;18.036;2023-11-21T06:28:58;98526.47;;;4.56;84.52
72428;BME280;60419;48.880;18.036;2023-11-21T06:31:44;98518.09;;;4.67;84.30
72428;BME280;60419;48.880;18.036;2023-11-21T06:34:31;98526.13;;;4.67;84.95
72428;BME280;60419;48.880;18.036;2023-11-21T06:37:16;98522.19;;;4.89;84.45
72428;BME280;60419;48.880;18.036;2023-11-21T06:40:02;98525.72;;;5.19;83.98
72428;BME280;60419;48.880;18.036;2023-11-21T06:42:49;98523.38;;;5.12;84.09
72428;BME280;60419;48.880;18.036;2023-11-21T06:45:35;98533.22;;;4.82;84.41
72428;BME280;60419;48.880;18.036;2023-11-21T06:48:20;98531.78;;;5.29;85.07
72428;BME280;60419;48.880;18.036;2023-11-21T06:51:06;98534.72;;;5.28;84.02
72428;BME280;60419;48.880;18.036;2023-11-21T06:53:52;98528.59;;;5.51;84.51
72428;BME280;60419;48.880;18.036;2023-11-21T06:56:37;98537.03;;;5.88;82.96
72428;BME280;60419;48.880;18.036;2023-11-21T06:59:24;98510.00;;;5.84;81.58
72428;BME280;60419;48.880;18.036;2023-11-21T07:02:09;98535.78;;;6.23;80.22
72428;BME280;60419;48.880;18.036;2023-11-21T07:04:55;98546.97;;;6.49;80.14
72428;BME280;60419;48.880;18.036;2023-11-21T07:07:40;98541.31;;;6.70;79.42
72428;BME280;60419;48.880;18.036;2023-11-21T07:10:26;98543.00;;;6.79;77.94
72428;BME280;60419;48.880;18.036;2023-11-21T07:13:11;98529.31;;;6.81;77.99
72428;BME280;60419;48.880;18.036;2023-11-21T07:15:59;98550.31;;;6.41;78.87
72428;BME280;60419;48.880;18.036;2023-11-21T07:18:44;98552.47;;;6.58;77.56
72428;BME280;60419;48.880;18.036;2023-11-21T07:21:30;98555.00;;;6.49;78.37
72428;BME280;60419;48.880;18.036;2023-11-21T07:24:16;98528.53;;;6.23;78.68
72428;BME280;60419;48.880;18.036;2023-11-21T07:27:01;98560.81;;;6.75;78.18
72428;BME280;60419;48.880;18.036;2023-11-21T07:29:46;98560.13;;;6.83;77.59
72428;BME280;60419;48.880;18.036;2023-11-21T07:32:33;98555.53;;;7.03;76.89
72428;BME280;60419;48.880;18.036;2023-11-21T07:35:19;98557.88;;;6.91;77.39
72428;BME280;60419;48.880;18.036;2023-11-21T07:38:04;98557.41;;;7.21;75.88
72428;BME280;60419;48.880;18.036;2023-11-21T07:40:50;98558.78;;;7.19;77.04
72428;BME280;60419;48.880;18.036;2023-11-21T07:43:35;98562.84;;;7.63;75.12
72428;BME280;60419;48.880;18.036;2023-11-21T07:46:21;98556.38;;;7.50;75.18
72428;BME280;60419;48.880;18.036;2023-11-21T07:49:07;98559.84;;;6.66;78.71
72428;BME280;60419;48.880;18.036;2023-11-21T07:51:52;98557.31;;;6.56;80.19
72428;BME280;60419;48.880;18.036;2023-11-21T07:54:38;98561.31;;;6.58;80.21
72428;BME280;60419;48.880;18.036;2023-11-21T07:57:23;98562.63;;;6.42;81.04
72428;BME280;60419;48.880;18.036;2023-11-21T08:00:10;98561.25;;;6.44;81.27
72428;BME280;60419;48.880;18.036;2023-11-21T08:02:57;98556.75;;;6.59;80.89
72428;BME280;60419;48.880;18.036;2023-11-21T08:05:43;98558.44;;;7.06;80.56
72428;BME280;60419;48.880;18.036;2023-11-21T08:08:29;98561.94;;;7.21;79.90
72428;BME280;60419;48.880;18.036;2023-11-21T08:11:14;98556.06;;;7.51;79.22
72428;BME280;60419;48.880;18.036;2023-11-21T08:13:59;98560.06;;;7.54;77.73
72428;BME280;60419;48.880;18.036;2023-11-21T08:16:45;98565.84;;;7.75;75.55
72428;BME280;60419;48.880;18.036;2023-11-21T08:19:30;98565.47;;;7.02;78.70
72428;BME280;60419;48.880;18.036;2023-11-21T08:22:16;98579.25;;;7.15;78.50
72428;BME280;60419;48.880;18.036;2023-11-21T08:25:03;98583.19;;;7.36;77.20
72428;BME280;60419;48.880;18.036;2023-11-21T08:27:49;98576.69;;;7.23;77.44
72428;BME280;60419;48.880;18.036;2023-11-21T08:30:35;98566.91;;;6.62;79.85
72428;BME280;60419;48.880;18.036;2023-11-21T08:33:21;98579.16;;;6.68;80.33
72428;BME280;60419;48.880;18.036;2023-11-21T08:36:07;98583.03;;;7.14;79.10
72428;BME280;60419;48.880;18.036;2023-11-21T08:38:53;98582.75;;;7.29;77.72
72428;BME280;60419;48.880;18.036;2023-11-21T08:41:39;98578.25;;;7.43;76.60
72428;BME280;60419;48.880;18.036;2023-11-21T08:44:25;98575.69;;;7.52;76.20
72428;BME280;60419;48.880;18.036;2023-11-21T08:47:10;98589.34;;;7.69;75.77
72428;BME280;60419;48.880;18.036;2023-11-21T08:49:56;98576.78;;;7.65;75.35
72428;BME280;60419;48.880;18.036;2023-11-21T08:52:44;98577.09;;;7.91;74.80
72428;BME280;60419;48.880;18.036;2023-11-21T08:55:31;98573.63;;;7.90;81.52
72428;BME280;60419;48.880;18.036;2023-11-21T08:58:16;98582.19;;;7.92;76.76
72428;BME280;60419;48.880;18.036;2023-11-21T09:01:02;98579.59;;;8.29;74.75
72428;BME280;60419;48.880;18.036;2023-11-21T09:03:48;98580.56;;;8.33;73.23
72428;BME280;60419;48.880;18.036;2023-11-21T09:06:35;98590.44;;;8.74;71.45
72428;BME280;60419;48.880;18.036;2023-11-21T09:09:20;98583.75;;;8.71;71.30
72428;BME280;60419;48.880;18.036;2023-11-21T09:12:06;98570.72;;;8.28;73.38
72428;BME280;60419;48.880;18.036;2023-11-21T09:14:51;98591.44;;;8.14;74.52
72428;BME280;60419;48.880;18.036;2023-11-21T09:17:37;98588.34;;;8.34;74.18
72428;BME280;60419;48.880;18.036;2023-11-21T09:20:22;98589.03;;;8.12;74.03
72428;BME280;60419;48.880;18.036;2023-11-21T09:23:08;98583.03;;;8.57;72.54
72428;BME280;60419;48.880;18.036;2023-11-21T09:25:53;98592.53;;;7.39;77.08
72428;BME280;60419;48.880;18.036;2023-11-21T09:28:43;98590.25;;;8.06;75.57
72428;BME280;60419;48.880;18.036;2023-11-21T09:31:32;98599.38;;;7.50;78.00
72428;BME280;60419;48.880;18.036;2023-11-21T09:34:18;98579.00;;;8.18;75.65
72428;BME280;60419;48.880;18.036;2023-11-21T09:37:04;98581.75;;;8.40;79.78
72428;BME280;60419;48.880;18.036;2023-11-21T09:39:51;98577.63;;;8.57;76.50
72428;BME280;60419;48.880;18.036;2023-11-21T09:42:39;98580.88;;;9.04;76.06
72428;BME280;60419;48.880;18.036;2023-11-21T09:45:34;98576.31;;;9.13;70.90
72428;BME280;60419;48.880;18.036;2023-11-21T09:48:20;98570.13;;;10.06;73.92
72428;BME280;60419;48.880;18.036;2023-11-21T09:51:08;98575.09;;;10.22;70.26
72428;BME280;60419;48.880;18.036;2023-11-21T09:53:54;98573.78;;;10.10;66.40
72428;BME280;60419;48.880;18.036;2023-11-21T09:56:40;98569.53;;;9.69;67.61
72428;BME280;60419;48.880;18.036;2023-11-21T09:59:30;98574.47;;;9.45;67.60
72428;BME280;60419;48.880;18.036;2023-11-21T10:02:17;98582.06;;;9.20;69.34
72428;BME280;60419;48.880;18.036;2023-11-21T10:05:04;98579.50;;;8.56;72.53
72428;BME280;60419;48.880;18.036;2023-11-21T10:07:52;98577.31;;;9.17;71.79
72428;BME280;60419;48.880;18.036;2023-11-21T10:10:45;98551.47;;;8.71;71.81
72428;BME280;60419;48.880;18.036;2023-11-21T10:13:31;98582.69;;;9.17;70.91
72428;BME280;60419;48.880;18.036;2023-11-21T10:16:18;98570.38;;;9.02;71.14
72428;BME280;60419;48.880;18.036;2023-11-21T10:19:09;98569.41;;;8.76;72.47
72428;BME280;60419;48.880;18.036;2023-11-21T10:21:55;98568.97;;;9.05;72.41
72428;BME280;60419;48.880;18.036;2023-11-21T10:24:43;98547.91;;;9.07;71.49
72428;BME280;60419;48.880;18.036;2023-11-21T10:27:28;98563.66;;;9.36;71.08
72428;BME280;60419;48.880;18.036;2023-11-21T10:30:14;98569.09;;;9.45;70.30
72428;BME280;60419;48.880;18.036;2023-11-21T10:33:01;98567.94;;;8.92;71.79
72428;BME280;60419;48.880;18.036;2023-11-21T10:35:48;98558.50;;;9.26;71.82
72428;BME280;60419;48.880;18.036;2023-11-21T10:38:42;98547.38;;;8.96;72.80
72428;BME280;60419;48.880;18.036;2023-11-21T10:41:28;98552.38;;;9.34;72.40
72428;BME280;60419;48.880;18.036;2023-11-21T10:44:15;98560.66;;;9.15;73.28
72428;BME280;60419;48.880;18.036;2023-11-21T10:47:05;98556.00;;;9.07;73.56
72428;BME280;60419;48.880;18.036;2023-11-21T10:49:53;98543.91;;;9.49;72.37
72428;BME280;60419;48.880;18.036;2023-11-21T10:52:41;98532.66;;;9.02;74.06
72428;BME280;60419;48.880;18.036;2023-11-21T10:55:33;98540.38;;;9.80;72.26
72428;BME280;60419;48.880;18.036;2023-11-21T10:58:19;98542.00;;;9.90;72.38
72428;BME280;60419;48.880;18.036;2023-11-21T11:01:06;98534.41;;;9.61;72.80
72428;BME280;60419;48.880;18.036;2023-11-21T11:03:52;98540.19;;;9.77;72.36
72428;BME280;60419;48.880;18.036;2023-11-21T11:06:40;98539.03;;;9.06;74.79
72428;BME280;60419;48.880;18.036;2023-11-21T11:09:26;98542.88;;;9.68;73.71
72428;BME280;60419;48.880;18.036;2023-11-21T11:12:12;98548.75;;;9.16;75.24
72428;BME280;60419;48.880;18.036;2023-11-21T11:15:00;98546.09;;;9.47;74.55
72428;BME280;60419;48.880;18.036;2023-11-21T11:17:46;98541.50;;;9.88;73.22
72428;BME280;60419;48.880;18.036;2023-11-21T11:20:36;98536.16;;;9.57;73.28
72428;BME280;60419;48.880;18.036;2023-11-21T11:23:32;98543.00;;;9.63;72.78
72428;BME280;60419;48.880;18.036;2023-11-21T11:36:35;98534.63;;;9.73;72.19
72428;BME280;60419;48.880;18.036;2023-11-21T11:39:31;98528.56;;;9.27;74.00
72428;BME280;60419;48.880;18.036;2023-11-21T11:42:21;98535.22;;;8.85;75.70
72428;BME280;60419;48.880;18.036;2023-11-21T11:45:17;98528.44;;;9.33;74.18
72428;BME280;60419;48.880;18.036;2023-11-21T11:48:05;98526.09;;;9.80;72.93
72428;BME280;60419;48.880;18.036;2023-11-21T11:51:04;98516.16;;;9.58;74.00
72428;BME280;60419;48.880;18.036;2023-11-21T11:53:51;98526.31;;;10.01;72.03
72428;BME280;60419;48.880;18.036;2023-11-21T11:56:37;98511.59;;;10.33;71.16
72428;BME280;60419;48.880;18.036;2023-11-21T11:59:23;98503.34;;;10.38;69.54
72428;BME280;60419;48.880;18.036;2023-11-21T12:02:09;98514.63;;;10.75;69.18
72428;BME280;60419;48.880;18.036;2023-11-21T12:04:55;98512.41;;;10.77;68.72
72428;BME280;60419;48.880;18.036;2023-11-21T12:07:46;98504.75;;;10.96;67.88
72428;BME280;60419;48.880;18.036;2023-11-21T12:10:34;98517.97;;;10.89;67.24
72428;BME280;60419;48.880;18.036;2023-11-21T12:13:20;98512.88;;;10.88;67.28
72428;BME280;60419;48.880;18.036;2023-11-21T12:16:06;98512.09;;;10.87;67.61
72428;BME280;60419;48.880;18.036;2023-11-21T12:18:51;98509.53;;;10.82;68.75
72428;BME280;60419;48.880;18.036;2023-11-21T12:21:39;98502.88;;;10.62;69.14
72428;BME280;60419;48.880;18.036;2023-11-21T12:24:27;98513.84;;;10.92;68.69
72428;BME280;60419;48.880;18.036;2023-11-21T12:27:14;98514.94;;;10.91;66.63
72428;BME280;60419;48.880;18.036;2023-11-21T12:29:59;98504.47;;;10.89;66.60
72428;BME280;60419;48.880;18.036;2023-11-21T12:32:48;98500.44;;;11.13;66.61
72428;BME280;60419;48.880;18.036;2023-11-21T12:35:34;98506.94;;;11.12;66.72
72428;BME280;60419;48.880;18.036;2023-11-21T12:38:20;98499.97;;;11.11;67.66
72428;BME280;60419;48.880;18.036;2023-11-21T12:41:06;98502.88;;;10.88;67.14
72428;BME280;60419;48.880;18.036;2023-11-21T12:43:55;98494.13;;;10.39;69.72
72428;BME280;60419;48.880;18.036;2023-11-21T12:46:42;98489.84;;;10.47;69.87
72428;BME280;60419;48.880;18.036;2023-11-21T12:49:30;98486.03;;;10.74;68.58
72428;BME280;60419;48.880;18.036;2023-11-21T12:52:17;98496.81;;;10.74;68.41
72428;BME280;60419;48.880;18.036;2023-11-21T12:55:03;98496.78;;;11.09;67.57
72428;BME280;60419;48.880;18.036;2023-11-21T12:57:50;98465.84;;;10.71;68.81
72428;BME280;60419;48.880;18.036;2023-11-21T13:00:47;98496.19;;;10.59;69.64
72428;BME280;60419;48.880;18.036;2023-11-21T13:03:34;98499.81;;;11.16;67.88
72428;BME280;60419;48.880;18.036;2023-11-21T13:06:22;98492.34;;;11.13;67.98
72428;BME280;60419;48.880;18.036;2023-11-21T13:09:10;98494.06;;;11.26;65.69
72428;BME280;60419;48.880;18.036;2023-11-21T13:12:01;98494.75;;;10.88;66.57
72428;BME280;60419;48.880;18.036;2023-11-21T13:14:48;98498.50;;;11.22;66.13
72428;BME280;60419;48.880;18.036;2023-11-21T13:17:34;98498.94;;;11.33;65.84
72428;BME280;60419;48.880;18.036;2023-11-21T13:20:20;98483.13;;;10.96;66.93
72428;BME280;60419;48.880;18.036;2023-11-21T13:23:10;98506.03;;;10.47;70.65
72428;BME280;60419;48.880;18.036;2023-11-21T13:25:57;98513.31;;;10.11;72.62
72428;BME280;60419;48.880;18.036;2023-11-21T13:28:43;98512.84;;;9.61;74.23
72428;BME280;60419;48.880;18.036;2023-11-21T13:31:32;98528.69;;;9.22;76.26
72428;BME280;60419;48.880;18.036;2023-11-21T13:34:21;98525.88;;;9.05;76.47
72428;BME280;60419;48.880;18.036;2023-11-21T13:37:10;98531.44;;;9.31;75.98
72428;BME280;60419;48.880;18.036;2023-11-21T13:39:56;98516.38;;;9.70;74.30
72428;BME280;60419;48.880;18.036;2023-11-21T13:42:41;98519.09;;;9.79;73.72
72428;BME280;60419;48.880;18.036;2023-11-21T13:45:28;98526.53;;;9.73;74.32
72428;BME280;60419;48.880;18.036;2023-11-21T13:48:15;98528.31;;;9.86;73.92
72428;BME280;60419;48.880;18.036;2023-11-21T13:51:04;98526.22;;;10.32;72.73
72428;BME280;60419;48.880;18.036;2023-11-21T13:54:02;98532.22;;;10.20;73.38
72428;BME280;60419;48.880;18.036;2023-11-21T13:56:50;98535.91;;;10.76;70.88
72428;BME280;60419;48.880;18.036;2023-11-21T13:59:35;98536.69;;;10.86;70.74
72428;BME280;60419;48.880;18.036;2023-11-21T14:02:21;98546.81;;;11.41;68.82
72428;BME280;60419;48.880;18.036;2023-11-21T14:05:17;98552.03;;;11.46;67.83
72428;BME280;60419;48.880;18.036;2023-11-21T14:08:14;98540.97;;;11.21;68.01
72428;BME280;60419;48.880;18.036;2023-11-21T14:11:02;98543.06;;;11.07;68.65
72428;BME280;60419;48.880;18.036;2023-11-21T14:13:47;98546.41;;;10.69;70.04
72428;BME280;60419;48.880;18.036;2023-11-21T14:16:33;98543.69;;;11.04;68.61
72428;BME280;60419;48.880;18.036;2023-11-21T14:19:19;98533.81;;;11.17;67.55
72428;BME280;60419;48.880;18.036;2023-11-21T14:22:04;98539.41;;;11.67;65.93
72428;BME280;60419;48.880;18.036;2023-11-21T14:24:49;98533.69;;;11.99;65.33
72428;BME280;60419;48.880;18.036;2023-11-21T14:27:37;98521.81;;;12.12;64.25
72428;BME280;60419;48.880;18.036;2023-11-21T14:30:22;98544.25;;;12.63;62.38
72428;BME280;60419;48.880;18.036;2023-11-21T14:33:08;98535.75;;;13.07;60.76
72428;BME280;60419;48.880;18.036;2023-11-21T14:35:56;98539.19;;;13.16;61.39
72428;BME280;60419;48.880;18.036;2023-11-21T14:38:42;98549.63;;;13.38;60.22
72428;BME280;60419;48.880;18.036;2023-11-21T14:41:28;98542.53;;;13.46;59.91
72428;BME280;60419;48.880;18.036;2023-11-21T14:44:14;98541.84;;;13.37;59.00
72428;BME280;60419;48.880;18.036;2023-11-21T14:47:00;98549.75;;;13.42;59.49
72428;BME280;60419;48.880;18.036;2023-11-21T14:49:50;98554.25;;;13.71;58.55